首页
METAR-TAF:

METAR-TAF

机场 :

夏洛特道格拉斯國際機場

夏洛特, 北卡罗来纳州, 美国

纬度: 35-12-48N, 经度: 080-56-55W, 海拔: 228米

当前天气观测

该预报发布于1小时和5分钟前的04:52 UTC
风速3节,风向西北
温度 23°C
湿度 78%
气压 1017 hPa
能見度: 12.9公里
少量云层高于25000英尺

METAR: KCLT 270452Z 32003KT 8SM FEW250 23/19 A3002 RMK AO2 SLP155 T02330189 403500200

时间: 01:57 (05:57 UTC)

预报

该预报发布于23分钟前的05:34 UTC
预报有效从27日的 06点(UTC)到 28日的 12点(UTC)
风速3节,风向西转西北
能見度: 10公里
少量云层高于25000英尺
从 27日的 1500点(UTC)
风速8节,风向西转西北,有时为15节阵风
能見度: 10公里
少量云层高于6000英尺
从 27日的 2000点(UTC)
风速6节,风向西
能見度: 10公里
少量云层高于7000英尺
少量云层高于25000英尺
从 28日的 0100点(UTC)
风速3节,风向西北
能見度: 10公里
少量云层高于8000英尺
少量云层高于25000英尺

TAF: KCLT 270534Z 2706/2812 30003KT P6SM FEW250 FM271500 30008G15KT P6SM FEW060 FM272000 26006KT P6SM FEW070 FEW250 FM280100 32003KT P6SM FEW080 FEW250

超过4000个机场的气象观测和天气预报(METAR&TAF报告)。

可查询的气象台以黄色和红色小点在地图上表示。

将鼠标移到小点上方,可查看气象台名称。

然后点击查看天气观测和预报。

如需切换地图:点击带黑十字的绿色按钮放大地图;点击带横线的绿色按钮缩小地图;或者点击绿色箭头查看邻近地区的地图。


METAR-TAF: